Time;durP1;ratioP1;P1;durP2;ratioP2;P2;SDS_P1;SDS_P2;PMS_P1;PMS_P2;Temp;Humidity;BMP_temperature;BMP_pressure;BME280_temperature;BME280_humidity;BME280_pressure;Samples;Min_cycle;Max_cycle;Signal;HPM_P1;HPM_P2
2021/01/24 00:00:49;;;;;;;21.97;17.53;;;;;;;;;;2082823;28;20184;-60
2021/01/24 00:01:49;;;;;;;20.80;16.97;;;;;;;;;;2086844;28;20192;-63
2021/01/24 00:02:50;;;;;;;21.23;17.70;;;;;;;;;;2073697;28;20669;-62
2021/01/24 00:03:50;;;;;;;24.23;18.30;;;;;;;;;;2074170;28;20188;-59
2021/01/24 00:04:50;;;;;;;21.93;17.80;;;;;;;;;;2075096;28;20170;-61
2021/01/24 00:05:50;;;;;;;25.80;17.67;;;;;;;;;;2071206;28;20196;-60
2021/01/24 00:06:51;;;;;;;21.73;16.97;;;;;;;;;;2087628;28;20183;-60
2021/01/24 00:07:51;;;;;;;21.43;16.90;;;;;;;;;;2082310;28;20194;-63
2021/01/24 00:08:51;;;;;;;19.83;17.67;;;;;;;;;;2082666;28;20549;-61
2021/01/24 00:09:51;;;;;;;26.23;18.53;;;;;;;;;;2073597;28;20184;-60
2021/01/24 00:10:52;;;;;;;21.07;17.63;;;;;;;;;;2073500;28;20193;-59
2021/01/24 00:11:52;;;;;;;22.07;17.70;;;;;;;;;;2073550;28;20200;-60
2021/01/24 00:12:52;;;;;;;20.07;17.23;;;;;;;;;;2065779;28;20200;-61
2021/01/24 00:13:53;;;;;;;24.03;17.53;;;;;;;;;;2073718;28;20173;-60
2021/01/24 00:14:53;;;;;;;22.23;17.50;;;;;;;;;;2081288;28;20252;-60
2021/01/24 00:15:53;;;;;;;21.87;16.97;;;;;;;;;;2078926;28;20189;-59
2021/01/24 00:16:54;;;;;;;20.93;16.60;;;;;;;;;;2083401;28;20210;-61
2021/01/24 00:17:54;;;;;;;22.93;17.60;;;;;;;;;;2079124;28;20215;-60
2021/01/24 00:18:54;;;;;;;26.50;19.17;;;;;;;;;;2082152;28;20278;-62
2021/01/24 00:19:54;;;;;;;21.70;17.67;;;;;;;;;;2081450;28;20172;-62
2021/01/24 00:20:55;;;;;;;20.77;17.30;;;;;;;;;;2081661;28;20184;-62
2021/01/24 00:21:55;;;;;;;22.60;18.00;;;;;;;;;;2082470;28;20211;-62
2021/01/24 00:22:55;;;;;;;23.70;18.60;;;;;;;;;;2082551;28;20200;-60
2021/01/24 00:23:56;;;;;;;23.43;18.00;;;;;;;;;;2080836;28;20188;-61
2021/01/24 00:24:56;;;;;;;23.90;17.63;;;;;;;;;;2082532;28;20212;-60
2021/01/24 00:25:56;;;;;;;22.80;17.70;;;;;;;;;;2079735;28;20172;-61
2021/01/24 00:26:57;;;;;;;20.23;17.37;;;;;;;;;;2077652;28;20191;-60
2021/01/24 00:27:57;;;;;;;24.50;18.13;;;;;;;;;;2073140;28;20177;-61
2021/01/24 00:28:58;;;;;;;22.90;18.13;;;;;;;;;;2080612;28;20184;-61
2021/01/24 00:29:58;;;;;;;21.70;17.03;;;;;;;;;;2082975;28;20167;-61
2021/01/24 00:30:59;;;;;;;23.33;18.33;;;;;;;;;;2081437;28;20672;-62
2021/01/24 00:31:59;;;;;;;24.50;19.07;;;;;;;;;;2079055;28;20275;-64
2021/01/24 00:32:59;;;;;;;23.83;18.43;;;;;;;;;;2082281;28;20239;-62
2021/01/24 00:33:59;;;;;;;23.80;17.60;;;;;;;;;;2082276;28;20164;-61
2021/01/24 00:35:00;;;;;;;20.33;18.13;;;;;;;;;;2080196;28;20218;-60
2021/01/24 00:36:00;;;;;;;23.20;16.23;;;;;;;;;;2084309;28;20202;-62
2021/01/24 00:37:00;;;;;;;21.97;17.47;;;;;;;;;;2085644;28;20267;-60
2021/01/24 00:38:01;;;;;;;21.33;16.83;;;;;;;;;;2082035;28;20183;-60
2021/01/24 00:39:01;;;;;;;23.53;18.33;;;;;;;;;;2073081;28;20242;-60
2021/01/24 00:40:02;;;;;;;24.13;18.37;;;;;;;;;;2072902;28;20193;-60
2021/01/24 00:41:04;;;;;;;21.47;16.80;;;;;;;;;;2064952;28;20705;-58
2021/01/24 00:42:04;;;;;;;20.73;17.67;;;;;;;;;;2073990;28;20959;-62
2021/01/24 00:43:05;;;;;;;24.30;18.33;;;;;;;;;;2075031;28;20272;-61
2021/01/24 00:44:06;;;;;;;21.43;17.00;;;;;;;;;;2064384;28;20677;-60
2021/01/24 00:45:07;;;;;;;20.97;17.23;;;;;;;;;;2073010;28;20173;-61
2021/01/24 00:46:07;;;;;;;20.57;17.53;;;;;;;;;;2080540;28;20173;-61
2021/01/24 00:47:08;;;;;;;22.00;17.40;;;;;;;;;;2082666;28;20180;-61
2021/01/24 00:48:08;;;;;;;23.87;17.93;;;;;;;;;;2081287;28;20255;-61
2021/01/24 00:49:08;;;;;;;26.27;18.33;;;;;;;;;;2081405;28;20303;-61
2021/01/24 00:50:09;;;;;;;23.47;17.73;;;;;;;;;;2072190;28;20175;-63
2021/01/24 00:51:09;;;;;;;20.60;17.20;;;;;;;;;;2064710;28;20604;-61
2021/01/24 00:52:10;;;;;;;21.40;17.50;;;;;;;;;;2072474;28;20189;-63
2021/01/24 00:53:11;;;;;;;19.73;17.43;;;;;;;;;;2071086;28;20208;-59
2021/01/24 00:54:11;;;;;;;25.73;18.77;;;;;;;;;;2073123;28;20230;-60
2021/01/24 00:55:11;;;;;;;25.30;19.03;;;;;;;;;;2081580;28;20175;-62
2021/01/24 00:56:11;;;;;;;24.73;17.97;;;;;;;;;;2074725;28;20705;-62
2021/01/24 00:57:12;;;;;;;29.07;20.87;;;;;;;;;;2072536;28;20192;-62
2021/01/24 00:58:12;;;;;;;32.57;24.27;;;;;;;;;;2081308;28;20178;-59
2021/01/24 00:59:12;;;;;;;37.53;30.10;;;;;;;;;;2081375;28;20708;-62
2021/01/24 01:00:13;;;;;;;34.70;25.80;;;;;;;;;;2079934;28;20180;-62
2021/01/24 01:01:13;;;;;;;27.13;21.13;;;;;;;;;;2081988;28;20171;-62
2021/01/24 01:02:13;;;;;;;24.77;18.23;;;;;;;;;;2083673;28;20260;-62
2021/01/24 01:03:14;;;;;;;27.80;21.67;;;;;;;;;;2081312;28;20184;-61
2021/01/24 01:04:14;;;;;;;23.33;19.93;;;;;;;;;;2072640;28;20260;-62
2021/01/24 01:05:14;;;;;;;21.27;18.87;;;;;;;;;;2064437;28;20182;-60
2021/01/24 01:06:15;;;;;;;24.70;19.00;;;;;;;;;;2074830;28;20187;-59
2021/01/24 01:07:15;;;;;;;24.97;18.70;;;;;;;;;;2082664;28;20172;-61
2021/01/24 01:08:15;;;;;;;22.30;18.37;;;;;;;;;;2082053;28;20187;-60
2021/01/24 01:09:16;;;;;;;24.53;18.57;;;;;;;;;;2080894;28;20581;-58
2021/01/24 01:10:16;;;;;;;24.77;19.03;;;;;;;;;;2078509;28;20187;-62
2021/01/24 01:11:16;;;;;;;24.77;18.40;;;;;;;;;;2081525;28;20600;-60
2021/01/24 01:12:16;;;;;;;24.83;18.13;;;;;;;;;;2072642;28;20165;-60
2021/01/24 01:13:17;;;;;;;24.40;17.80;;;;;;;;;;2075561;28;20546;-60
2021/01/24 01:14:17;;;;;;;22.20;17.60;;;;;;;;;;2079790;28;20204;-60
2021/01/24 01:15:17;;;;;;;22.43;17.57;;;;;;;;;;2078283;28;20172;-59
2021/01/24 01:16:17;;;;;;;25.07;18.83;;;;;;;;;;2077532;28;20242;-60
2021/01/24 01:17:18;;;;;;;24.03;18.27;;;;;;;;;;2081490;28;20207;-59
2021/01/24 01:18:18;;;;;;;23.73;17.53;;;;;;;;;;2081412;28;20172;-58
2021/01/24 01:19:18;;;;;;;22.33;18.57;;;;;;;;;;2079555;28;20183;-60
2021/01/24 01:20:19;;;;;;;21.87;17.80;;;;;;;;;;2079604;28;20195;-60
2021/01/24 01:21:19;;;;;;;24.37;18.93;;;;;;;;;;2081061;28;20664;-61
2021/01/24 01:22:19;;;;;;;22.77;17.77;;;;;;;;;;2079691;28;20645;-59
2021/01/24 01:23:19;;;;;;;23.97;18.53;;;;;;;;;;2079333;28;20172;-62
2021/01/24 01:24:20;;;;;;;24.03;17.80;;;;;;;;;;2081245;28;20524;-60
2021/01/24 01:25:20;;;;;;;22.90;17.70;;;;;;;;;;2081201;28;20172;-60
2021/01/24 01:26:20;;;;;;;20.30;18.03;;;;;;;;;;2074910;28;20181;-62
2021/01/24 01:27:20;;;;;;;24.97;18.83;;;;;;;;;;2072188;28;20188;-61
2021/01/24 01:28:21;;;;;;;23.37;17.23;;;;;;;;;;2075843;28;20172;-61
2021/01/24 01:29:21;;;;;;;23.37;18.03;;;;;;;;;;2077565;28;20259;-62
2021/01/24 01:30:22;;;;;;;23.03;18.07;;;;;;;;;;2081309;28;20188;-61
2021/01/24 01:31:22;;;;;;;22.60;18.27;;;;;;;;;;2072091;28;20184;-61
2021/01/24 01:33:24;;;;;;;24.40;18.20;;;;;;;;;;2057271;28;20285;-55
2021/01/24 01:34:25;;;;;;;24.70;17.93;;;;;;;;;;2061767;28;20185;-50
2021/01/24 01:35:25;;;;;;;24.13;18.30;;;;;;;;;;2060379;28;20268;-50
2021/01/24 01:36:25;;;;;;;25.07;17.80;;;;;;;;;;2063298;28;20174;-52
2021/01/24 01:37:25;;;;;;;23.40;18.53;;;;;;;;;;2064338;28;20214;-57
2021/01/24 01:38:26;;;;;;;25.73;18.10;;;;;;;;;;2062028;28;20712;-53
2021/01/24 01:39:26;;;;;;;24.60;19.20;;;;;;;;;;2053952;28;20174;-57
2021/01/24 01:40:27;;;;;;;23.77;18.23;;;;;;;;;;2055829;28;20174;-57
2021/01/24 01:41:28;;;;;;;25.17;17.37;;;;;;;;;;2060858;28;20647;-52
2021/01/24 01:42:28;;;;;;;24.50;17.47;;;;;;;;;;2064712;28;20174;-51
2021/01/24 01:43:28;;;;;;;27.07;18.70;;;;;;;;;;2063720;28;20553;-51
2021/01/24 01:44:28;;;;;;;24.83;18.67;;;;;;;;;;2064420;28;20177;-54
2021/01/24 01:45:28;;;;;;;26.63;17.90;;;;;;;;;;2064483;28;20178;-57
2021/01/24 01:46:29;;;;;;;23.27;18.43;;;;;;;;;;2057003;28;20178;-56
2021/01/24 01:47:29;;;;;;;26.43;18.53;;;;;;;;;;2048458;29;20319;-52
2021/01/24 01:48:30;;;;;;;25.40;18.03;;;;;;;;;;2056168;28;20206;-56
2021/01/24 01:49:31;;;;;;;22.20;18.27;;;;;;;;;;2065967;28;20657;-52
2021/01/24 01:50:31;;;;;;;22.17;16.20;;;;;;;;;;2065437;28;20177;-56
2021/01/24 01:51:31;;;;;;;24.37;16.90;;;;;;;;;;2065794;28;20312;-56
2021/01/24 01:52:31;;;;;;;23.43;17.20;;;;;;;;;;2072857;28;20176;-54
2021/01/24 01:53:34;;;;;;;20.57;15.83;;;;;;;;;;2073778;28;20184;-56
2021/01/24 01:54:34;;;;;;;25.10;18.33;;;;;;;;;;2074317;28;20180;-55
2021/01/24 01:55:35;;;;;;;23.37;17.43;;;;;;;;;;2072073;28;20626;-52
2021/01/24 01:56:35;;;;;;;25.73;17.90;;;;;;;;;;2065867;28;20660;-53
2021/01/24 01:57:35;;;;;;;23.87;17.67;;;;;;;;;;2064826;28;20253;-55
2021/01/24 01:58:35;;;;;;;25.20;17.80;;;;;;;;;;2065665;28;20491;-52
2021/01/24 01:59:36;;;;;;;20.33;16.60;;;;;;;;;;2065922;28;20157;-56
2021/01/24 02:00:36;;;;;;;21.80;16.60;;;;;;;;;;2064016;28;20214;-56
2021/01/24 02:01:55;;;;;;;25.43;18.37;;;;;;;;;;2066146;28;20178;-51
2021/01/24 02:03:14;;;;;;;23.23;17.57;;;;;;;;;;2064460;28;20244;-55
2021/01/24 02:04:24;;;;;;;21.93;17.57;;;;;;;;;;2066004;28;20189;-57
2021/01/24 02:05:27;;;;;;;23.33;17.40;;;;;;;;;;2065177;28;20272;-58
2021/01/24 02:06:32;;;;;;;20.33;16.97;;;;;;;;;;2065846;28;20202;-51
2021/01/24 02:07:32;;;;;;;21.53;17.47;;;;;;;;;;2064378;28;20201;-54
2021/01/24 02:08:40;;;;;;;22.53;17.93;;;;;;;;;;2065385;28;20165;-55
2021/01/24 02:09:50;;;;;;;26.33;17.50;;;;;;;;;;2057624;28;20220;-57
2021/01/24 02:10:57;;;;;;;21.20;16.90;;;;;;;;;;2066029;28;20177;-53
2021/01/24 02:12:01;;;;;;;21.83;17.63;;;;;;;;;;2065035;28;20166;-55
2021/01/24 02:13:19;;;;;;;22.70;17.53;;;;;;;;;;2066073;28;20190;-55
2021/01/24 02:14:28;;;;;;;23.80;17.20;;;;;;;;;;2057389;28;20232;-54
2021/01/24 02:15:30;;;;;;;23.17;17.83;;;;;;;;;;2049587;28;20155;-54
2021/01/24 02:16:30;;;;;;;20.63;16.80;;;;;;;;;;2056748;28;20236;-50
2021/01/24 02:17:45;;;;;;;21.07;17.57;;;;;;;;;;2063910;28;20205;-53
2021/01/24 02:18:47;;;;;;;20.10;17.03;;;;;;;;;;2057386;28;20181;-53
2021/01/24 02:19:54;;;;;;;21.60;17.30;;;;;;;;;;2049194;28;20175;-55
2021/01/24 02:21:15;;;;;;;20.50;16.17;;;;;;;;;;2057734;28;20178;-53
2021/01/24 02:22:15;;;;;;;22.07;16.80;;;;;;;;;;2064845;28;20276;-57
2021/01/24 02:23:18;;;;;;;24.67;17.73;;;;;;;;;;2065935;28;20224;-57
2021/01/24 02:24:21;;;;;;;21.00;16.77;;;;;;;;;;2065383;28;20253;-54
2021/01/24 02:25:40;;;;;;;22.83;17.83;;;;;;;;;;2065547;28;20162;-55
2021/01/24 02:26:41;;;;;;;24.03;16.87;;;;;;;;;;2057904;28;20197;-56
2021/01/24 02:27:47;;;;;;;21.70;17.40;;;;;;;;;;2065333;28;20219;-53
2021/01/24 02:29:06;;;;;;;23.43;17.50;;;;;;;;;;2057367;28;20189;-54
2021/01/24 02:30:14;;;;;;;19.70;16.07;;;;;;;;;;2055552;28;20262;-55
2021/01/24 02:31:15;;;;;;;22.97;17.33;;;;;;;;;;2065321;28;20651;-56
2021/01/24 02:32:16;;;;;;;21.27;16.63;;;;;;;;;;2065444;28;20293;-50
2021/01/24 02:33:21;;;;;;;23.63;18.23;;;;;;;;;;2065093;28;20216;-53
2021/01/24 02:34:26;;;;;;;21.10;17.57;;;;;;;;;;2065692;28;20184;-52
2021/01/24 02:35:27;;;;;;;21.70;17.10;;;;;;;;;;2057252;28;20175;-53
2021/01/24 02:36:28;;;;;;;24.57;17.50;;;;;;;;;;2057295;28;20654;-55
2021/01/24 02:37:29;;;;;;;21.93;16.90;;;;;;;;;;2063573;28;20224;-56
2021/01/24 02:38:30;;;;;;;23.60;18.00;;;;;;;;;;2064871;28;20189;-54
2021/01/24 02:39:31;;;;;;;22.30;17.60;;;;;;;;;;2065565;28;20169;-57
2021/01/24 02:40:35;;;;;;;21.67;17.90;;;;;;;;;;2065297;28;20198;-52
2021/01/24 02:41:35;;;;;;;20.40;17.17;;;;;;;;;;2065042;28;20265;-53
2021/01/24 02:42:36;;;;;;;25.70;18.00;;;;;;;;;;2064843;28;20274;-56
2021/01/24 02:43:36;;;;;;;22.13;16.90;;;;;;;;;;2065059;28;20547;-56
2021/01/24 02:44:38;;;;;;;22.73;18.03;;;;;;;;;;2064825;28;20188;-56
2021/01/24 02:45:42;;;;;;;22.17;18.20;;;;;;;;;;2061915;28;20182;-54
2021/01/24 02:46:43;;;;;;;21.60;16.93;;;;;;;;;;2058020;28;20593;-52
2021/01/24 02:47:44;;;;;;;21.97;17.57;;;;;;;;;;2064630;28;20546;-52
2021/01/24 02:48:45;;;;;;;21.10;16.87;;;;;;;;;;2065054;28;20193;-56
2021/01/24 02:49:47;;;;;;;24.93;17.77;;;;;;;;;;2061002;28;20737;-52
2021/01/24 02:50:47;;;;;;;21.90;18.27;;;;;;;;;;2065583;28;20178;-55
2021/01/24 02:51:48;;;;;;;23.60;18.30;;;;;;;;;;2064988;28;20696;-56
2021/01/24 02:52:48;;;;;;;28.97;18.27;;;;;;;;;;2056170;28;20205;-52
2021/01/24 02:53:49;;;;;;;24.07;17.37;;;;;;;;;;2052259;28;20714;-55
2021/01/24 02:54:50;;;;;;;25.33;18.13;;;;;;;;;;2065269;28;20245;-54
2021/01/24 02:55:50;;;;;;;25.40;18.20;;;;;;;;;;2055602;28;20215;-54
2021/01/24 02:56:51;;;;;;;24.43;18.53;;;;;;;;;;2056939;28;20174;-53
2021/01/24 02:57:51;;;;;;;23.43;17.97;;;;;;;;;;2065062;28;20744;-54
2021/01/24 02:58:52;;;;;;;24.33;18.13;;;;;;;;;;2065263;28;20178;-55
2021/01/24 02:59:53;;;;;;;20.07;17.27;;;;;;;;;;2064909;28;20173;-54
2021/01/24 03:00:53;;;;;;;22.33;17.10;;;;;;;;;;2064850;28;20189;-53
2021/01/24 03:01:53;;;;;;;23.10;17.63;;;;;;;;;;2064011;28;20174;-53
2021/01/24 03:02:54;;;;;;;26.80;18.60;;;;;;;;;;2059176;28;20256;-56
2021/01/24 03:03:54;;;;;;;22.80;18.83;;;;;;;;;;2065442;28;20182;-57
2021/01/24 03:04:54;;;;;;;24.53;18.90;;;;;;;;;;2060527;28;20268;-57
2021/01/24 03:05:54;;;;;;;26.50;18.63;;;;;;;;;;2065514;28;20190;-51
2021/01/24 03:06:54;;;;;;;26.57;19.33;;;;;;;;;;2054675;28;20183;-54
2021/01/24 03:07:55;;;;;;;23.67;18.67;;;;;;;;;;2056414;28;20178;-52
2021/01/24 03:08:55;;;;;;;26.63;19.00;;;;;;;;;;2062672;28;20196;-53
2021/01/24 03:09:56;;;;;;;28.07;18.60;;;;;;;;;;2064847;28;20265;-53
2021/01/24 03:10:56;;;;;;;25.63;19.63;;;;;;;;;;2065377;28;20190;-56
2021/01/24 03:11:58;;;;;;;25.33;18.80;;;;;;;;;;2062187;28;20550;-55
2021/01/24 03:13:18;;;;;;;24.57;18.90;;;;;;;;;;2064613;28;20561;-56
2021/01/24 03:14:21;;;;;;;27.40;19.37;;;;;;;;;;2064663;28;20185;-55
2021/01/24 03:15:21;;;;;;;30.03;21.27;;;;;;;;;;2062890;28;20177;-56
2021/01/24 03:16:23;;;;;;;24.80;20.67;;;;;;;;;;2062162;28;20260;-53
2021/01/24 03:17:24;;;;;;;27.63;19.80;;;;;;;;;;2055658;28;20727;-57
2021/01/24 03:18:26;;;;;;;26.00;19.30;;;;;;;;;;2057096;28;20225;-54
2021/01/24 03:19:27;;;;;;;25.87;19.47;;;;;;;;;;2056504;28;20188;-55
2021/01/24 03:20:28;;;;;;;24.37;19.50;;;;;;;;;;2055565;28;20269;-56
2021/01/24 03:21:30;;;;;;;24.23;19.80;;;;;;;;;;2063340;28;20169;-49
2021/01/24 03:22:31;;;;;;;23.07;18.33;;;;;;;;;;2060958;28;20177;-55
2021/01/24 03:23:31;;;;;;;25.40;20.10;;;;;;;;;;2057022;28;20174;-53
2021/01/24 03:24:32;;;;;;;23.50;18.33;;;;;;;;;;2060821;28;20630;-54
2021/01/24 03:25:35;;;;;;;23.53;18.20;;;;;;;;;;2063182;28;20244;-56
2021/01/24 03:26:35;;;;;;;21.00;18.00;;;;;;;;;;2064672;28;20665;-55
2021/01/24 03:27:36;;;;;;;22.47;17.93;;;;;;;;;;2064874;28;20209;-56
2021/01/24 03:28:37;;;;;;;22.73;18.33;;;;;;;;;;2065324;28;20193;-54
2021/01/24 03:29:38;;;;;;;22.17;17.50;;;;;;;;;;2060356;28;20181;-57
2021/01/24 03:30:38;;;;;;;19.90;17.23;;;;;;;;;;2064890;28;20705;-52
2021/01/24 03:31:39;;;;;;;22.77;17.43;;;;;;;;;;2061542;28;20536;-56
2021/01/24 03:32:39;;;;;;;20.63;17.07;;;;;;;;;;2059665;28;20270;-53
2021/01/24 03:33:39;;;;;;;22.03;17.50;;;;;;;;;;2065979;28;20186;-55
2021/01/24 03:34:40;;;;;;;20.97;17.00;;;;;;;;;;2065328;28;20185;-54
2021/01/24 03:35:40;;;;;;;21.27;16.67;;;;;;;;;;2065226;28;20190;-55
2021/01/24 03:36:40;;;;;;;21.83;17.70;;;;;;;;;;2065054;28;20185;-54
2021/01/24 03:37:41;;;;;;;20.03;16.60;;;;;;;;;;2055902;28;20214;-54
2021/01/24 03:38:41;;;;;;;20.50;17.17;;;;;;;;;;2056168;28;20170;-51
2021/01/24 03:39:41;;;;;;;20.50;16.70;;;;;;;;;;2065147;28;20649;-55
2021/01/24 03:40:41;;;;;;;21.70;17.67;;;;;;;;;;2065396;28;20177;-54
2021/01/24 03:41:42;;;;;;;21.83;17.87;;;;;;;;;;2059187;28;20189;-54
2021/01/24 03:42:42;;;;;;;21.53;16.87;;;;;;;;;;2065190;28;20178;-53
2021/01/24 03:43:43;;;;;;;21.87;16.67;;;;;;;;;;2061768;28;20292;-55
2021/01/24 03:44:43;;;;;;;21.40;17.83;;;;;;;;;;2056710;28;20257;-53
2021/01/24 03:45:43;;;;;;;22.57;17.23;;;;;;;;;;2053274;28;20178;-57
2021/01/24 03:46:43;;;;;;;21.73;16.87;;;;;;;;;;2065269;28;20659;-52
2021/01/24 03:47:44;;;;;;;20.83;16.27;;;;;;;;;;2057493;28;20185;-55
2021/01/24 03:48:44;;;;;;;20.97;17.47;;;;;;;;;;2065271;28;20181;-56
2021/01/24 03:49:44;;;;;;;21.27;16.90;;;;;;;;;;2064360;28;20669;-55
2021/01/24 03:50:44;;;;;;;20.40;17.10;;;;;;;;;;2065172;28;20597;-58
2021/01/24 03:51:45;;;;;;;19.93;16.37;;;;;;;;;;2061406;28;20229;-57
2021/01/24 03:52:45;;;;;;;21.63;16.83;;;;;;;;;;2064769;28;20202;-55
2021/01/24 03:53:45;;;;;;;22.07;17.53;;;;;;;;;;2064678;28;20189;-54
2021/01/24 03:54:45;;;;;;;22.83;17.40;;;;;;;;;;2064642;28;20185;-55
2021/01/24 03:55:46;;;;;;;20.83;17.00;;;;;;;;;;2064903;28;20177;-54
2021/01/24 03:56:46;;;;;;;20.27;16.13;;;;;;;;;;2060758;28;20190;-54
2021/01/24 03:57:47;;;;;;;20.50;17.07;;;;;;;;;;2064250;28;20220;-54
2021/01/24 03:58:47;;;;;;;22.17;17.27;;;;;;;;;;2064590;28;20257;-55
2021/01/24 03:59:51;;;;;;;21.30;16.30;;;;;;;;;;2063929;28;20205;-53
2021/01/24 04:00:51;;;;;;;20.00;16.87;;;;;;;;;;2058859;28;20175;-54
2021/01/24 04:01:51;;;;;;;24.53;18.03;;;;;;;;;;2063033;28;20256;-55
2021/01/24 04:02:52;;;;;;;21.30;17.20;;;;;;;;;;2064985;28;20513;-53
2021/01/24 04:03:52;;;;;;;22.17;17.73;;;;;;;;;;2064069;28;20180;-53
2021/01/24 04:04:52;;;;;;;22.20;16.87;;;;;;;;;;2065011;28;20173;-53
2021/01/24 04:05:52;;;;;;;22.73;17.60;;;;;;;;;;2064295;28;20257;-54
2021/01/24 04:06:53;;;;;;;20.87;17.23;;;;;;;;;;2064846;28;20192;-51
2021/01/24 04:07:53;;;;;;;23.60;17.97;;;;;;;;;;2064746;28;20178;-51
2021/01/24 04:08:53;;;;;;;22.77;18.17;;;;;;;;;;2064038;28;20193;-53
2021/01/24 04:09:53;;;;;;;22.30;18.80;;;;;;;;;;2065112;28;20228;-55
2021/01/24 04:10:54;;;;;;;21.00;17.07;;;;;;;;;;2064134;28;20209;-56
2021/01/24 04:11:54;;;;;;;22.73;17.97;;;;;;;;;;2063324;28;20611;-56
2021/01/24 04:12:54;;;;;;;21.43;17.93;;;;;;;;;;2056597;28;20280;-53
2021/01/24 04:13:54;;;;;;;23.50;19.13;;;;;;;;;;2055752;28;20181;-56
2021/01/24 04:14:55;;;;;;;21.40;17.87;;;;;;;;;;2064408;28;20668;-51
2021/01/24 04:15:55;;;;;;;21.70;17.33;;;;;;;;;;2056468;28;20205;-50
2021/01/24 04:16:55;;;;;;;24.00;17.57;;;;;;;;;;2054107;28;20264;-53
2021/01/24 04:17:55;;;;;;;24.23;18.50;;;;;;;;;;2063861;28;20233;-57
2021/01/24 04:18:56;;;;;;;23.40;17.50;;;;;;;;;;2064572;28;20185;-51
2021/01/24 04:19:56;;;;;;;20.10;16.40;;;;;;;;;;2064866;28;20218;-54
2021/01/24 04:20:56;;;;;;;22.50;18.20;;;;;;;;;;2062163;28;20668;-53
2021/01/24 04:21:56;;;;;;;20.47;17.80;;;;;;;;;;2056536;28;20174;-57
2021/01/24 04:22:57;;;;;;;22.47;17.33;;;;;;;;;;2045469;29;20237;-53
2021/01/24 04:23:57;;;;;;;23.57;18.43;;;;;;;;;;2048347;28;20242;-56
2021/01/24 04:24:57;;;;;;;21.80;16.43;;;;;;;;;;2056015;28;20256;-53
2021/01/24 04:25:57;;;;;;;22.17;17.00;;;;;;;;;;2064674;28;20176;-53
2021/01/24 04:26:58;;;;;;;22.93;17.23;;;;;;;;;;2058660;28;20265;-55
2021/01/24 04:27:58;;;;;;;22.67;17.80;;;;;;;;;;2060469;28;20236;-56
2021/01/24 04:28:59;;;;;;;23.37;17.97;;;;;;;;;;2060865;28;20332;-53
2021/01/24 04:29:59;;;;;;;23.43;18.30;;;;;;;;;;2062802;28;20241;-52
2021/01/24 04:30:59;;;;;;;23.63;19.13;;;;;;;;;;2056391;28;20175;-53
2021/01/24 04:32:00;;;;;;;22.00;18.33;;;;;;;;;;2054682;28;20251;-52
2021/01/24 04:33:00;;;;;;;25.67;19.57;;;;;;;;;;2055661;28;20305;-53
2021/01/24 04:34:00;;;;;;;24.70;18.77;;;;;;;;;;2056064;28;20286;-56
2021/01/24 04:35:01;;;;;;;21.80;18.00;;;;;;;;;;2064853;28;20240;-54
2021/01/24 04:36:01;;;;;;;23.83;19.13;;;;;;;;;;2061985;28;20185;-54
2021/01/24 04:37:01;;;;;;;27.27;19.90;;;;;;;;;;2064753;28;20212;-52
2021/01/24 04:38:02;;;;;;;23.73;18.37;;;;;;;;;;2063564;28;20229;-56
2021/01/24 04:39:02;;;;;;;23.67;18.43;;;;;;;;;;2064152;28;20166;-50
2021/01/24 04:40:03;;;;;;;23.93;18.53;;;;;;;;;;2063907;28;20245;-53
2021/01/24 04:41:03;;;;;;;23.27;18.33;;;;;;;;;;2055970;28;20221;-54
2021/01/24 04:42:04;;;;;;;24.33;17.77;;;;;;;;;;2052727;28;20258;-51
2021/01/24 04:43:04;;;;;;;22.23;18.87;;;;;;;;;;2064545;28;20194;-53
2021/01/24 04:44:05;;;;;;;23.47;19.37;;;;;;;;;;2064791;28;20264;-52
2021/01/24 04:45:06;;;;;;;24.10;18.50;;;;;;;;;;2064140;28;20177;-55
2021/01/24 04:46:07;;;;;;;24.27;18.47;;;;;;;;;;2064958;28;20730;-56
2021/01/24 04:47:07;;;;;;;25.27;20.53;;;;;;;;;;2060621;28;20561;-53
2021/01/24 04:48:09;;;;;;;25.90;19.33;;;;;;;;;;2063962;28;20174;-55
2021/01/24 04:49:10;;;;;;;25.70;18.67;;;;;;;;;;2064287;28;20706;-56
2021/01/24 04:50:10;;;;;;;24.47;19.63;;;;;;;;;;2064699;28;20177;-55
2021/01/24 04:51:11;;;;;;;26.30;20.10;;;;;;;;;;2055569;28;20181;-53
2021/01/24 04:52:11;;;;;;;25.13;19.50;;;;;;;;;;2052578;28;20171;-54
2021/01/24 04:53:12;;;;;;;25.80;20.30;;;;;;;;;;2063813;28;20552;-54
2021/01/24 04:54:12;;;;;;;26.63;20.33;;;;;;;;;;2063412;28;20714;-50
2021/01/24 04:55:13;;;;;;;23.97;19.70;;;;;;;;;;2061236;28;20197;-55
2021/01/24 04:56:13;;;;;;;28.13;21.20;;;;;;;;;;2063251;28;20201;-54
2021/01/24 04:57:15;;;;;;;26.57;20.30;;;;;;;;;;2060665;28;20162;-54
2021/01/24 04:58:15;;;;;;;26.33;20.63;;;;;;;;;;2062745;28;20195;-57
2021/01/24 04:59:15;;;;;;;27.60;21.13;;;;;;;;;;2056174;28;20198;-52
2021/01/24 05:00:16;;;;;;;30.00;20.30;;;;;;;;;;2056132;28;20666;-53
2021/01/24 05:01:17;;;;;;;27.17;20.33;;;;;;;;;;2062904;28;20228;-52
2021/01/24 05:02:17;;;;;;;26.93;20.73;;;;;;;;;;2051979;28;20595;-58
2021/01/24 05:03:17;;;;;;;28.70;20.93;;;;;;;;;;2052415;28;20788;-55
2021/01/24 05:04:18;;;;;;;29.20;21.13;;;;;;;;;;2056171;28;20178;-53
2021/01/24 05:05:18;;;;;;;28.40;20.40;;;;;;;;;;2053644;28;20182;-54
2021/01/24 05:06:18;;;;;;;26.33;21.27;;;;;;;;;;2065279;28;20264;-50
2021/01/24 05:07:18;;;;;;;27.97;20.63;;;;;;;;;;2064418;28;20292;-54
2021/01/24 05:08:22;;;;;;;24.87;20.10;;;;;;;;;;2064460;28;20176;-54
2021/01/24 05:09:22;;;;;;;29.03;19.93;;;;;;;;;;2064897;28;20181;-55
2021/01/24 05:10:27;;;;;;;27.00;20.23;;;;;;;;;;2064957;28;20192;-56
2021/01/24 05:11:27;;;;;;;24.10;18.90;;;;;;;;;;2056297;28;20175;-52
2021/01/24 05:12:28;;;;;;;29.23;21.63;;;;;;;;;;2054742;28;20542;-55
2021/01/24 05:13:28;;;;;;;27.57;20.70;;;;;;;;;;2063249;28;20204;-56
2021/01/24 05:14:29;;;;;;;27.43;20.47;;;;;;;;;;2064859;28;20182;-50
2021/01/24 05:15:29;;;;;;;25.47;20.20;;;;;;;;;;2063913;28;20284;-55
2021/01/24 05:16:29;;;;;;;26.07;19.83;;;;;;;;;;2064342;28;20188;-53
2021/01/24 05:17:30;;;;;;;26.07;20.40;;;;;;;;;;2061888;28;20194;-54
2021/01/24 05:18:30;;;;;;;28.57;21.07;;;;;;;;;;2063667;28;20185;-55
2021/01/24 05:19:37;;;;;;;26.77;20.30;;;;;;;;;;2066358;28;20170;-54
2021/01/24 05:20:42;;;;;;;25.20;19.53;;;;;;;;;;2066412;28;20650;-55
2021/01/24 05:21:43;;;;;;;23.67;19.60;;;;;;;;;;2066054;28;20170;-53
2021/01/24 05:22:44;;;;;;;28.43;20.97;;;;;;;;;;2053717;28;20183;-54
2021/01/24 05:23:44;;;;;;;27.77;21.67;;;;;;;;;;2057879;28;20182;-53
2021/01/24 05:24:45;;;;;;;25.33;19.57;;;;;;;;;;2066342;28;20643;-55
2021/01/24 05:25:46;;;;;;;28.33;21.13;;;;;;;;;;2066113;28;20178;-52
2021/01/24 05:26:48;;;;;;;28.03;19.70;;;;;;;;;;2065460;28;20225;-54
2021/01/24 05:27:48;;;;;;;23.83;19.17;;;;;;;;;;2064878;28;20189;-54
2021/01/24 05:28:48;;;;;;;27.70;20.10;;;;;;;;;;2066302;28;20232;-57
2021/01/24 05:29:49;;;;;;;25.87;18.97;;;;;;;;;;2061627;28;20197;-57
2021/01/24 05:30:49;;;;;;;27.83;20.07;;;;;;;;;;2066097;28;20191;-53
2021/01/24 05:31:51;;;;;;;27.00;20.23;;;;;;;;;;2065774;28;20727;-56
2021/01/24 05:32:51;;;;;;;26.77;19.50;;;;;;;;;;2066060;28;20217;-54
2021/01/24 05:33:55;;;;;;;29.27;19.60;;;;;;;;;;2060932;28;20526;-53
2021/01/24 05:34:57;;;;;;;28.93;21.03;;;;;;;;;;2065863;28;20173;-53
2021/01/24 05:35:57;;;;;;;27.47;20.50;;;;;;;;;;2065792;28;20181;-54
2021/01/24 05:36:58;;;;;;;26.20;19.00;;;;;;;;;;2065339;28;20634;-58
2021/01/24 05:37:58;;;;;;;29.73;21.07;;;;;;;;;;2059278;28;20206;-53
2021/01/24 05:39:00;;;;;;;26.63;20.50;;;;;;;;;;2064544;28;20178;-51
2021/01/24 05:40:00;;;;;;;26.73;20.33;;;;;;;;;;2065849;28;20201;-55
2021/01/24 05:41:01;;;;;;;25.33;20.17;;;;;;;;;;2064390;28;20553;-53
2021/01/24 05:42:01;;;;;;;27.63;20.83;;;;;;;;;;2060871;28;20185;-54
2021/01/24 05:43:01;;;;;;;25.67;20.63;;;;;;;;;;2064430;28;20189;-51
2021/01/24 05:44:02;;;;;;;26.67;20.77;;;;;;;;;;2060918;28;20182;-57
2021/01/24 05:45:09;;;;;;;26.40;20.07;;;;;;;;;;2055444;28;20167;-51
2021/01/24 05:46:10;;;;;;;28.53;20.77;;;;;;;;;;2057280;28;20182;-51
2021/01/24 05:47:10;;;;;;;26.83;21.27;;;;;;;;;;2062204;28;20249;-54
2021/01/24 05:48:14;;;;;;;28.33;20.83;;;;;;;;;;2062392;28;20592;-55
2021/01/24 05:49:33;;;;;;;28.33;20.53;;;;;;;;;;2061693;28;20667;-53
2021/01/24 05:50:34;;;;;;;29.00;21.43;;;;;;;;;;2064562;28;20177;-55
2021/01/24 05:51:34;;;;;;;26.83;21.17;;;;;;;;;;2064960;28;20320;-55
2021/01/24 05:52:37;;;;;;;29.47;22.70;;;;;;;;;;2061139;28;20213;-55
2021/01/24 05:53:37;;;;;;;27.47;21.17;;;;;;;;;;2057189;28;20182;-54
2021/01/24 05:54:39;;;;;;;32.33;22.37;;;;;;;;;;2057052;28;20258;-50
2021/01/24 05:55:39;;;;;;;29.03;21.23;;;;;;;;;;2048532;29;20183;-54
2021/01/24 05:56:39;;;;;;;32.13;22.37;;;;;;;;;;2056348;28;20234;-54
2021/01/24 05:57:40;;;;;;;29.57;22.17;;;;;;;;;;2065206;28;20669;-54